MacKay, Idaho
Current Conditions -  °F | °C
As of 5:55 AM on Saturday 25 Oct 2014 (Local Time) from KSUN Reporting Station
Clear Clear  
Wind Chill: 32°   Ceiling: Unl
Heat Index: 39°   Visibility: 10mi
Dew Point: 30°   Wind: 13mph
Humidity: 70%   Direction: 320°NW
Pressure: 30.07"   Gusts: NA
Location:  43.91°N, 113.61°W
Report Text: KSUN 251155Z AUTO 32011KT 10SM CLR 04/M01 A3007 RMK AO2
Loading
Personal Weather Stations






























Interactive Weather Map
Tropical Storm Tracking
New forecast layout! Learn more

10-Day Weather Forecast

Advertisements
Track Severe Weather on mobile